Terminal Aerodrome Forecast
Issued by NWS

Home | Current Version | Previous Version | Text Only | Print | Product List | Glossary On
Versions: 1 2 3 4 5 6 7 8 9 10 11 12
000
FTPA31 PHFO 291732
TAFHJH
TAF
PHJH 291732Z 2918/3018 06010G16KT P6SM FEW030 SCT050
     FM292100 06017G25KT P6SM FEW035 FEW050
     FM300500 06010G18KT P6SM FEW025 SCT045
      AMD NOT SKED AFT 300400=

USA.gov is the U.S. government's official web portal to all federal, state and local government web resources and services.